Time;durP1;ratioP1;P1;durP2;ratioP2;P2;SDS_P1;SDS_P2;PMS_P1;PMS_P2;Temp;Humidity;BMP_temperature;BMP_pressure;BME280_temperature;BME280_humidity;BME280_pressure;Samples;Min_cycle;Max_cycle;Signal;HPM_P1;HPM_P2
2022/04/07 00:01:48;;;;;;;4.00;2.70;;;11.60;99.90;;;;;;5071475;28;20216;-51
2022/04/07 00:04:15;;;;;;;4.23;2.97;;;11.60;99.90;;;;;;5067511;28;20356;-49
2022/04/07 00:06:42;;;;;;;3.20;2.90;;;11.60;99.90;;;;;;5071903;28;20216;-45
2022/04/07 00:09:09;;;;;;;4.20;2.97;;;11.60;99.90;;;;;;5071628;28;20217;-44
2022/04/07 00:11:38;;;;;;;3.63;2.70;;;11.60;99.90;;;;;;5071914;28;20209;-50
2022/04/07 00:14:05;;;;;;;4.43;2.83;;;11.60;99.90;;;;;;5066957;28;20685;-49
2022/04/07 00:16:32;;;;;;;2.20;2.10;;;11.60;99.90;;;;;;5067021;28;20310;-49
2022/04/07 00:19:00;;;;;;;4.17;2.70;;;11.60;99.90;;;;;;5065685;28;20649;-50
2022/04/07 00:21:35;;;;;;;3.77;2.67;;;11.60;99.90;;;;;;5067265;28;20203;-48
2022/04/07 00:24:03;;;;;;;3.73;2.30;;;11.60;99.90;;;;;;5065998;28;20197;-46
2022/04/07 00:26:32;;;;;;;3.20;2.47;;;11.60;99.90;;;;;;5066033;28;20300;-48
2022/04/07 00:29:01;;;;;;;4.07;2.50;;;11.60;99.90;;;;;;5060794;28;20220;-49
2022/04/07 00:31:28;;;;;;;2.63;2.43;;;11.60;99.90;;;;;;5064282;28;20208;-45
2022/04/07 00:33:55;;;;;;;5.93;2.37;;;11.60;99.90;;;;;;5064345;28;20194;-49
2022/04/07 00:36:22;;;;;;;4.97;2.60;;;11.60;99.90;;;;;;5064804;28;20199;-44
2022/04/07 00:38:49;;;;;;;2.40;2.20;;;11.60;99.90;;;;;;5071349;28;20203;-46
2022/04/07 00:41:16;;;;;;;3.03;2.60;;;11.60;99.90;;;;;;5063802;28;20558;-49
2022/04/07 00:43:50;;;;;;;2.90;2.40;;;11.60;99.90;;;;;;5070266;28;20223;-47
2022/04/07 00:46:19;;;;;;;2.77;2.53;;;11.60;99.90;;;;;;5058029;28;20274;-49
2022/04/07 00:48:46;;;;;;;6.83;2.40;;;11.60;99.90;;;;;;5067843;28;20301;-47
2022/04/07 00:51:13;;;;;;;4.07;2.30;;;11.60;99.90;;;;;;5064394;28;20213;-47
2022/04/07 00:53:41;;;;;;;1.97;1.87;;;11.60;99.90;;;;;;5070097;28;20220;-49
2022/04/07 00:56:09;;;;;;;4.33;2.27;;;11.60;99.90;;;;;;5071163;28;20274;-44
2022/04/07 00:58:36;;;;;;;2.70;2.20;;;11.60;99.90;;;;;;5066517;28;20247;-47
2022/04/07 01:01:03;;;;;;;3.77;2.37;;;11.60;99.90;;;;;;5069370;28;20268;-44
2022/04/07 01:03:32;;;;;;;4.63;2.70;;;11.60;99.90;;;;;;5063425;28;20541;-46
2022/04/07 01:06:00;;;;;;;3.70;2.50;;;11.50;99.90;;;;;;5058257;28;20684;-47
2022/04/07 01:08:27;;;;;;;3.40;2.70;;;11.50;99.90;;;;;;5067201;28;20204;-46
2022/04/07 01:10:54;;;;;;;2.90;2.10;;;11.50;99.90;;;;;;5069149;28;20221;-47
2022/04/07 01:13:22;;;;;;;4.17;2.97;;;11.50;99.90;;;;;;5067207;28;20206;-49
2022/04/07 01:15:49;;;;;;;6.00;2.80;;;11.50;99.90;;;;;;5065397;28;20232;-46
2022/04/07 01:18:17;;;;;;;3.20;2.10;;;11.40;99.90;;;;;;5060415;28;20194;-46
2022/04/07 01:20:46;;;;;;;3.40;1.97;;;11.40;99.90;;;;;;5065502;28;20278;-47
2022/04/07 01:23:13;;;;;;;3.00;2.33;;;11.40;99.90;;;;;;5065105;28;20221;-43
2022/04/07 01:25:42;;;;;;;4.63;2.60;;;11.40;99.90;;;;;;5064603;28;20202;-43
2022/04/07 01:28:09;;;;;;;3.90;2.73;;;11.40;99.90;;;;;;5064606;28;20187;-44
2022/04/07 01:30:37;;;;;;;3.30;2.60;;;11.30;99.90;;;;;;5069798;28;20201;-46
2022/04/07 01:33:05;;;;;;;3.63;2.57;;;11.30;99.90;;;;;;5069116;28;20707;-42
2022/04/07 01:35:33;;;;;;;3.03;2.37;;;11.20;99.90;;;;;;5063898;28;20215;-42
2022/04/07 01:38:01;;;;;;;2.80;1.90;;;11.30;99.90;;;;;;5070518;28;20527;-42
2022/04/07 01:40:32;;;;;;;3.57;2.27;;;11.30;99.90;;;;;;5069043;28;20206;-43
2022/04/07 01:43:05;;;;;;;2.63;2.43;;;11.30;99.90;;;;;;5069644;28;20231;-44
2022/04/07 01:45:33;;;;;;;4.03;3.23;;;11.30;99.90;;;;;;5056738;28;20220;-48
2022/04/07 01:48:03;;;;;;;2.40;2.30;;;11.20;99.90;;;;;;5068211;28;20637;-43
2022/04/07 01:50:33;;;;;;;3.10;2.40;;;11.20;99.90;;;;;;5070244;28;20258;-44
2022/04/07 01:53:01;;;;;;;2.53;2.00;;;11.20;99.90;;;;;;5067497;28;20228;-43
2022/04/07 01:55:28;;;;;;;2.00;1.90;;;11.20;99.90;;;;;;5068281;28;20200;-46
2022/04/07 01:57:56;;;;;;;2.10;2.00;;;11.20;99.90;;;;;;5066658;28;20222;-47
2022/04/07 02:00:25;;;;;;;3.73;2.53;;;11.20;99.90;;;;;;5067848;28;20252;-43
2022/04/07 02:02:52;;;;;;;2.50;2.30;;;11.20;99.90;;;;;;5066321;28;20507;-44
2022/04/07 02:05:19;;;;;;;2.40;2.20;;;11.20;99.90;;;;;;5064857;28;20202;-45
2022/04/07 02:07:47;;;;;;;3.30;2.30;;;11.20;99.90;;;;;;5066836;28;20190;-45
2022/04/07 02:10:15;;;;;;;2.73;2.20;;;11.10;99.90;;;;;;5066580;28;20280;-44
2022/04/07 02:12:44;;;;;;;2.87;2.40;;;11.10;99.90;;;;;;5068717;28;20239;-45
2022/04/07 02:15:12;;;;;;;2.80;2.60;;;11.10;99.90;;;;;;5061691;28;20655;-44
2022/04/07 02:17:41;;;;;;;6.23;2.47;;;11.10;99.90;;;;;;5063634;28;20201;-48
2022/04/07 02:20:10;;;;;;;2.87;2.50;;;11.10;99.90;;;;;;5065694;28;20230;-50
2022/04/07 02:22:38;;;;;;;5.80;2.27;;;11.10;99.90;;;;;;5064830;28;20193;-51
2022/04/07 02:25:08;;;;;;;4.53;2.63;;;11.00;99.90;;;;;;5059997;28;20253;-51
2022/04/07 02:27:36;;;;;;;2.20;2.00;;;11.00;99.90;;;;;;5064309;28;20197;-49
2022/04/07 02:30:05;;;;;;;4.17;2.27;;;11.00;99.90;;;;;;5064980;28;20230;-48
2022/04/07 02:32:32;;;;;;;2.50;2.30;;;11.00;99.90;;;;;;5062173;28;20263;-46
2022/04/07 02:35:01;;;;;;;3.70;2.50;;;11.00;99.90;;;;;;5061226;28;20618;-48
2022/04/07 02:37:28;;;;;;;4.07;2.50;;;11.00;99.90;;;;;;5061878;28;20203;-50
2022/04/07 02:39:56;;;;;;;4.67;2.27;;;11.00;99.90;;;;;;5057363;28;20225;-51
2022/04/07 02:42:23;;;;;;;2.57;2.03;;;11.00;99.90;;;;;;5068516;28;20285;-44
2022/04/07 02:44:50;;;;;;;3.07;1.80;;;11.00;99.90;;;;;;5069226;28;20222;-48
2022/04/07 02:47:17;;;;;;;2.50;1.97;;;11.00;99.90;;;;;;5068483;28;20311;-48
2022/04/07 02:49:45;;;;;;;2.87;2.20;;;11.00;99.90;;;;;;5067992;28;20228;-48
2022/04/07 02:52:13;;;;;;;3.37;2.20;;;11.00;99.90;;;;;;5069320;28;20204;-45
2022/04/07 02:54:40;;;;;;;3.23;1.90;;;10.90;99.90;;;;;;5069355;28;20671;-45
2022/04/07 02:57:07;;;;;;;1.97;1.87;;;11.00;99.90;;;;;;5068988;28;20233;-43
2022/04/07 02:59:35;;;;;;;2.77;2.17;;;11.00;99.90;;;;;;5067213;28;20190;-42
2022/04/07 03:02:03;;;;;;;3.43;2.10;;;11.00;99.90;;;;;;5065795;28;20200;-45
2022/04/07 03:04:30;;;;;;;1.93;1.80;;;11.00;99.90;;;;;;5067668;28;20665;-45
2022/04/07 03:06:57;;;;;;;3.20;2.17;;;11.00;99.90;;;;;;5066461;28;20571;-45
2022/04/07 03:09:25;;;;;;;2.80;1.97;;;11.00;99.90;;;;;;5065786;28;20200;-43
2022/04/07 03:11:52;;;;;;;2.17;1.70;;;11.00;99.90;;;;;;5065337;28;20212;-44
2022/04/07 03:14:20;;;;;;;1.70;1.60;;;11.00;99.90;;;;;;5068546;28;20204;-43
2022/04/07 03:16:48;;;;;;;2.70;2.10;;;10.90;99.90;;;;;;5064055;28;20685;-44
2022/04/07 03:19:16;;;;;;;3.47;2.87;;;10.90;99.90;;;;;;5063930;28;20198;-45
2022/04/07 03:21:44;;;;;;;2.57;2.23;;;10.90;99.90;;;;;;5064933;28;20686;-42
2022/04/07 03:24:11;;;;;;;7.53;3.40;;;10.90;99.90;;;;;;5069512;28;20230;-44
2022/04/07 03:26:40;;;;;;;6.40;3.60;;;10.90;99.90;;;;;;5067519;28;20208;-44
2022/04/07 03:29:07;;;;;;;4.97;3.10;;;10.90;99.90;;;;;;5067019;28;20217;-43
2022/04/07 03:31:35;;;;;;;5.47;3.17;;;10.80;99.90;;;;;;5066468;28;20737;-44
2022/04/07 03:34:02;;;;;;;4.00;3.07;;;10.90;99.90;;;;;;5063322;28;20209;-45
2022/04/07 03:36:29;;;;;;;4.97;2.57;;;10.80;99.90;;;;;;5066806;28;20199;-44
2022/04/07 03:38:56;;;;;;;6.60;2.60;;;10.80;99.90;;;;;;5072163;28;20716;-45
2022/04/07 03:41:24;;;;;;;3.60;2.20;;;10.80;99.90;;;;;;5071904;28;20672;-43
2022/04/07 03:43:52;;;;;;;3.83;2.57;;;10.80;99.90;;;;;;5066313;28;20565;-47
2022/04/07 03:46:21;;;;;;;3.57;2.20;;;10.80;99.90;;;;;;5058259;28;20205;-43
2022/04/07 03:48:49;;;;;;;3.63;2.40;;;10.80;99.90;;;;;;5069967;28;20298;-46
2022/04/07 03:51:16;;;;;;;2.40;2.20;;;10.80;99.90;;;;;;5071576;28;20667;-44
2022/04/07 03:53:44;;;;;;;2.43;2.10;;;10.70;99.90;;;;;;5070601;28;20697;-44
2022/04/07 03:56:11;;;;;;;2.53;2.13;;;10.80;99.90;;;;;;5070690;28;20224;-43
2022/04/07 03:58:38;;;;;;;2.23;2.00;;;10.70;99.90;;;;;;5069880;28;20292;-44
2022/04/07 04:01:07;;;;;;;3.57;2.10;;;10.70;99.90;;;;;;5069346;28;20617;-46
2022/04/07 04:03:34;;;;;;;3.97;2.40;;;10.70;99.90;;;;;;5067479;28;20193;-44
2022/04/07 04:06:01;;;;;;;3.30;2.10;;;10.70;99.90;;;;;;5069038;28;20210;-42
2022/04/07 04:08:29;;;;;;;3.73;2.07;;;10.60;99.90;;;;;;5063769;28;20275;-46
2022/04/07 04:10:56;;;;;;;3.60;1.87;;;10.70;99.90;;;;;;5058984;28;20224;-45
2022/04/07 04:13:25;;;;;;;3.50;2.10;;;10.60;99.90;;;;;;5069549;28;20712;-44
2022/04/07 04:15:52;;;;;;;4.70;2.30;;;10.70;99.90;;;;;;5065944;28;20665;-46
2022/04/07 04:18:23;;;;;;;3.33;2.43;;;10.60;99.90;;;;;;5064208;28;20209;-49
2022/04/07 04:20:50;;;;;;;3.77;2.57;;;10.70;99.90;;;;;;5072219;28;20670;-46
2022/04/07 04:23:17;;;;;;;4.40;2.80;;;10.70;99.90;;;;;;5061186;28;20195;-49
2022/04/07 04:25:46;;;;;;;4.03;2.60;;;10.60;99.90;;;;;;5058296;28;20197;-44
2022/04/07 04:28:13;;;;;;;6.00;2.73;;;10.60;99.90;;;;;;5059560;28;20195;-51
2022/04/07 04:30:40;;;;;;;4.53;3.13;;;10.60;99.90;;;;;;5057403;28;20201;-47
2022/04/07 04:33:07;;;;;;;4.10;3.20;;;10.60;99.90;;;;;;5061756;28;20674;-45
2022/04/07 04:35:36;;;;;;;6.40;3.80;;;10.60;99.90;;;;;;5064759;28;20191;-51
2022/04/07 04:38:03;;;;;;;9.03;3.60;;;10.50;99.90;;;;;;5057804;28;20200;-47
2022/04/07 04:40:30;;;;;;;9.00;3.77;;;10.50;99.90;;;;;;5069529;28;20220;-50
2022/04/07 04:42:59;;;;;;;5.70;3.23;;;10.50;99.90;;;;;;5065145;28;20193;-50
2022/04/07 04:45:26;;;;;;;4.40;3.20;;;10.50;99.90;;;;;;5069354;28;20204;-45
2022/04/07 04:47:54;;;;;;;4.83;3.20;;;10.40;99.90;;;;;;5069024;28;20282;-46
2022/04/07 04:50:21;;;;;;;5.90;3.50;;;10.50;99.90;;;;;;5070422;28;20204;-50
2022/04/07 04:52:50;;;;;;;6.13;3.67;;;10.40;99.90;;;;;;5056241;28;20585;-48
2022/04/07 04:55:17;;;;;;;10.63;4.63;;;10.40;99.90;;;;;;5069811;28;20272;-50
2022/04/07 04:57:44;;;;;;;10.40;4.53;;;10.40;99.90;;;;;;5057810;28;20670;-48
2022/04/07 05:00:13;;;;;;;6.63;3.87;;;10.40;99.90;;;;;;5070492;28;20262;-45
2022/04/07 05:02:40;;;;;;;11.83;5.67;;;10.40;99.90;;;;;;5057904;28;20243;-43
2022/04/07 05:05:08;;;;;;;7.50;4.93;;;10.40;99.90;;;;;;5070842;28;20269;-47
2022/04/07 05:07:36;;;;;;;8.93;4.60;;;10.40;99.90;;;;;;5061095;28;20192;-50
2022/04/07 05:10:05;;;;;;;5.40;4.00;;;10.40;99.90;;;;;;5069834;28;20603;-45
2022/04/07 05:12:32;;;;;;;3.70;3.40;;;10.40;99.90;;;;;;5056672;28;20223;-45
2022/04/07 05:14:59;;;;;;;6.07;3.03;;;10.40;99.90;;;;;;5062860;28;20241;-46
2022/04/07 05:17:27;;;;;;;4.53;3.37;;;10.50;99.90;;;;;;5065200;28;20203;-45
2022/04/07 05:19:54;;;;;;;3.03;2.40;;;10.50;99.90;;;;;;5067871;28;20213;-48
2022/04/07 05:22:21;;;;;;;2.93;2.40;;;10.50;99.90;;;;;;5070675;28;20735;-46
2022/04/07 05:24:49;;;;;;;2.17;1.97;;;10.50;99.90;;;;;;5066117;28;20203;-42
2022/04/07 05:27:18;;;;;;;5.30;3.10;;;10.60;99.90;;;;;;5094092;28;20262;-48
2022/04/07 05:29:45;;;;;;;5.00;3.00;;;10.60;99.90;;;;;;5059189;28;20552;-47
2022/04/07 05:32:12;;;;;;;4.17;2.70;;;10.60;99.90;;;;;;5068590;28;20217;-45
2022/04/07 05:34:39;;;;;;;4.80;3.00;;;10.60;99.90;;;;;;5062382;28;20660;-43
2022/04/07 05:37:07;;;;;;;5.87;2.83;;;10.70;99.90;;;;;;5068758;28;20236;-47
2022/04/07 05:39:34;;;;;;;3.93;3.03;;;10.80;99.90;;;;;;5057779;28;20198;-46
2022/04/07 05:42:01;;;;;;;5.20;2.80;;;10.70;99.90;;;;;;5068653;28;20211;-47
2022/04/07 05:44:29;;;;;;;2.90;2.23;;;10.80;99.90;;;;;;5067798;28;20211;-46
2022/04/07 05:46:56;;;;;;;3.20;2.70;;;10.80;99.90;;;;;;5068868;28;20192;-47
2022/04/07 05:49:23;;;;;;;3.77;2.73;;;10.90;99.90;;;;;;5053234;28;20203;-46
2022/04/07 05:51:54;;;;;;;3.33;2.77;;;10.90;99.90;;;;;;5068748;28;20210;-46
2022/04/07 05:54:21;;;;;;;7.23;3.30;;;10.90;99.90;;;;;;5054721;28;20702;-49
2022/04/07 05:56:48;;;;;;;7.17;3.63;;;10.90;99.90;;;;;;5057873;28;20199;-49
2022/04/07 05:59:15;;;;;;;7.03;2.80;;;11.00;99.90;;;;;;5060617;28;20209;-51
2022/04/07 06:01:44;;;;;;;6.93;3.57;;;11.00;99.90;;;;;;5060988;28;20199;-50
2022/04/07 06:04:11;;;;;;;4.63;3.23;;;11.00;99.90;;;;;;5064074;28;20534;-48
2022/04/07 06:06:38;;;;;;;4.67;3.37;;;11.00;99.90;;;;;;5068033;28;20560;-48
2022/04/07 06:09:06;;;;;;;8.17;3.50;;;11.00;99.90;;;;;;5065143;28;20253;-46
2022/04/07 06:11:34;;;;;;;5.37;3.53;;;11.00;99.90;;;;;;5060195;28;20188;-48
2022/04/07 06:14:01;;;;;;;7.40;3.47;;;11.00;99.90;;;;;;5068146;28;20202;-43
2022/04/07 06:16:29;;;;;;;3.07;2.60;;;11.10;99.90;;;;;;5067419;28;20326;-42
2022/04/07 06:18:57;;;;;;;7.57;3.80;;;11.10;99.90;;;;;;5067378;28;20206;-44
2022/04/07 06:21:24;;;;;;;6.73;3.73;;;11.20;99.90;;;;;;5069065;28;20204;-43
2022/04/07 06:23:52;;;;;;;5.63;3.53;;;11.20;99.90;;;;;;5061654;28;20210;-45
2022/04/07 06:26:19;;;;;;;5.37;3.17;;;11.20;99.90;;;;;;5069531;28;20607;-46
2022/04/07 06:28:46;;;;;;;5.73;2.70;;;11.30;99.90;;;;;;5067320;28;20198;-46
2022/04/07 06:31:14;;;;;;;5.07;3.20;;;11.40;99.90;;;;;;5068002;28;20194;-46
2022/04/07 06:33:41;;;;;;;5.63;3.43;;;11.40;99.90;;;;;;5062263;28;20228;-45
2022/04/07 06:36:09;;;;;;;4.97;3.27;;;11.50;99.90;;;;;;5068799;28;20657;-43
2022/04/07 06:38:36;;;;;;;4.10;3.37;;;11.60;99.90;;;;;;5061017;28;20221;-44
2022/04/07 06:41:04;;;;;;;5.20;3.60;;;11.60;99.90;;;;;;5068070;28;20656;-44
2022/04/07 06:43:31;;;;;;;4.03;2.97;;;12.10;99.90;;;;;;5065044;28;20722;-44
2022/04/07 06:45:58;;;;;;;6.70;3.43;;;11.80;99.90;;;;;;5071983;28;20205;-45
2022/04/07 06:48:25;;;;;;;4.43;3.10;;;11.80;99.90;;;;;;5065058;28;20209;-43
2022/04/07 06:50:52;;;;;;;4.60;3.40;;;11.80;99.90;;;;;;5067209;28;20194;-43
2022/04/07 06:53:21;;;;;;;4.70;3.30;;;11.80;99.90;;;;;;5073654;28;20308;-45
2022/04/07 06:55:48;;;;;;;6.10;3.03;;;11.90;99.90;;;;;;5065303;28;20192;-44
2022/04/07 06:58:15;;;;;;;5.43;2.87;;;12.00;99.90;;;;;;5056798;28;20218;-44
2022/04/07 07:00:44;;;;;;;5.47;3.17;;;12.10;99.90;;;;;;5068315;28;20194;-42
2022/04/07 07:03:13;;;;;;;3.40;3.10;;;12.20;99.90;;;;;;5064891;28;20291;-45
2022/04/07 07:05:41;;;;;;;5.83;3.07;;;12.30;99.90;;;;;;5072114;28;20201;-47
2022/04/07 07:08:15;;;;;;;4.37;3.37;;;12.40;99.90;;;;;;5071482;28;20193;-45
2022/04/07 07:10:45;;;;;;;7.70;3.07;;;12.50;99.90;;;;;;5067714;28;20189;-42
2022/04/07 07:13:14;;;;;;;3.63;2.87;;;12.50;99.90;;;;;;5066429;28;20251;-46
2022/04/07 07:15:41;;;;;;;4.13;2.83;;;12.60;99.80;;;;;;5067429;28;20295;-46
2022/04/07 07:18:08;;;;;;;4.40;2.70;;;12.70;99.70;;;;;;5070362;28;20192;-44
2022/04/07 07:20:35;;;;;;;3.43;2.77;;;12.80;99.50;;;;;;5059156;28;20207;-43
2022/04/07 07:23:03;;;;;;;2.60;2.40;;;12.90;99.40;;;;;;5063529;28;20188;-44
2022/04/07 07:25:31;;;;;;;4.67;2.73;;;12.90;99.30;;;;;;5059125;28;20277;-46
2022/04/07 07:28:00;;;;;;;2.90;2.50;;;13.00;99.20;;;;;;5069537;28;20201;-43
2022/04/07 07:30:28;;;;;;;3.33;2.97;;;13.10;98.90;;;;;;5066084;28;20193;-46
2022/04/07 07:32:56;;;;;;;3.97;2.70;;;13.20;98.70;;;;;;5064672;28;20630;-49
2022/04/07 07:35:24;;;;;;;5.43;3.10;;;13.30;98.60;;;;;;5069474;28;20217;-42
2022/04/07 07:37:52;;;;;;;5.70;2.80;;;13.40;98.40;;;;;;5071994;28;20389;-45
2022/04/07 07:40:20;;;;;;;4.53;2.63;;;13.40;98.10;;;;;;5067575;28;20194;-52
2022/04/07 07:42:48;;;;;;;6.87;2.90;;;13.50;97.70;;;;;;5064144;28;20193;-51
2022/04/07 07:45:18;;;;;;;4.43;2.33;;;13.60;97.50;;;;;;5059729;28;20208;-53
2022/04/07 07:47:45;;;;;;;3.07;2.67;;;13.60;97.50;;;;;;5068747;28;20267;-47
2022/04/07 07:50:12;;;;;;;3.20;2.40;;;13.70;97.30;;;;;;5072204;28;20201;-47
2022/04/07 07:52:40;;;;;;;4.43;2.30;;;13.80;97.10;;;;;;5070791;28;20283;-50
2022/04/07 07:55:08;;;;;;;2.93;2.57;;;13.80;97.00;;;;;;5069829;28;20209;-51
2022/04/07 07:57:35;;;;;;;4.00;3.10;;;14.00;97.00;;;;;;5066487;28;20204;-47
2022/04/07 08:00:07;;;;;;;3.93;2.60;;;14.00;96.50;;;;;;5063404;28;20210;-48
2022/04/07 08:02:35;;;;;;;2.93;2.60;;;14.10;95.90;;;;;;5062906;28;20294;-47
2022/04/07 08:05:03;;;;;;;4.13;2.83;;;14.10;95.60;;;;;;5063130;28;20195;-48
2022/04/07 08:07:30;;;;;;;5.73;2.60;;;14.10;95.30;;;;;;5071024;28;20266;-48
2022/04/07 08:09:58;;;;;;;3.00;2.60;;;14.20;95.10;;;;;;5067229;28;20281;-46
2022/04/07 08:12:26;;;;;;;4.17;2.50;;;14.20;94.50;;;;;;5070663;28;20588;-49
2022/04/07 08:14:54;;;;;;;2.40;2.20;;;14.20;94.40;;;;;;5063491;28;20319;-43
2022/04/07 08:17:22;;;;;;;4.10;2.53;;;14.20;94.40;;;;;;5067490;28;20198;-45
2022/04/07 08:19:51;;;;;;;6.70;3.00;;;14.30;94.20;;;;;;5065422;28;20213;-46
2022/04/07 08:22:18;;;;;;;4.07;3.10;;;14.30;93.80;;;;;;5061650;28;20516;-46
2022/04/07 08:24:46;;;;;;;4.80;2.50;;;14.30;93.70;;;;;;5061867;28;20202;-48
2022/04/07 08:27:13;;;;;;;5.03;2.40;;;14.30;93.30;;;;;;5071098;28;20194;-51
2022/04/07 08:29:40;;;;;;;3.73;2.97;;;14.30;93.50;;;;;;5069192;28;20218;-44
2022/04/07 08:32:08;;;;;;;3.43;3.10;;;14.30;93.50;;;;;;5067873;28;20261;-48
2022/04/07 08:34:36;;;;;;;3.83;2.80;;;14.40;93.40;;;;;;5056649;28;20233;-45
2022/04/07 08:37:04;;;;;;;5.50;2.63;;;14.50;93.30;;;;;;5064628;28;20203;-45
2022/04/07 08:39:32;;;;;;;2.50;2.27;;;14.60;93.20;;;;;;5069396;28;20210;-46
2022/04/07 08:42:00;;;;;;;3.07;2.60;;;14.70;93.10;;;;;;5065778;28;20199;-47
2022/04/07 08:44:31;;;;;;;3.40;2.60;;;14.70;92.90;;;;;;5068172;28;20654;-46
2022/04/07 08:46:59;;;;;;;4.03;2.30;;;14.80;92.60;;;;;;5063071;28;20194;-43
2022/04/07 08:49:28;;;;;;;3.77;2.70;;;14.90;92.60;;;;;;5059168;28;20604;-46
2022/04/07 08:51:56;;;;;;;2.60;2.40;;;15.00;92.30;;;;;;5069431;28;20203;-44
2022/04/07 08:54:24;;;;;;;2.90;2.50;;;15.20;92.20;;;;;;5068268;28;20211;-47
2022/04/07 08:56:52;;;;;;;2.30;2.10;;;15.30;92.10;;;;;;5068830;28;20532;-48
2022/04/07 08:59:19;;;;;;;4.70;2.90;;;15.40;92.00;;;;;;5069096;28;20257;-45
2022/04/07 09:01:46;;;;;;;2.50;2.40;;;15.50;91.60;;;;;;5067979;28;20196;-46
2022/04/07 09:04:14;;;;;;;2.87;2.30;;;15.50;91.20;;;;;;5068114;28;20537;-45
2022/04/07 09:06:42;;;;;;;3.27;2.43;;;15.60;91.00;;;;;;5069070;28;20219;-49
2022/04/07 09:09:16;;;;;;;4.00;2.60;;;15.70;90.90;;;;;;5069468;28;20223;-44
2022/04/07 09:11:45;;;;;;;3.33;2.90;;;15.70;90.50;;;;;;5063495;28;20197;-42
2022/04/07 09:14:13;;;;;;;3.57;2.60;;;15.70;90.20;;;;;;5068851;28;20212;-45
2022/04/07 09:16:41;;;;;;;4.00;2.80;;;15.60;90.10;;;;;;5067736;28;20573;-46
2022/04/07 09:19:09;;;;;;;2.57;2.33;;;15.70;90.10;;;;;;5067823;28;20199;-46
2022/04/07 09:21:37;;;;;;;3.57;2.03;;;15.70;89.50;;;;;;5060080;28;20616;-53
2022/04/07 09:24:07;;;;;;;3.53;2.60;;;15.70;88.50;;;;;;5068961;28;20245;-52
2022/04/07 09:26:36;;;;;;;4.33;2.50;;;15.60;88.20;;;;;;5068542;28;20199;-50
2022/04/07 09:29:14;;;;;;;4.20;2.47;;;15.50;88.50;;;;;;5067834;28;20212;-51
2022/04/07 09:31:51;;;;;;;3.57;2.50;;;15.50;89.10;;;;;;5061545;28;20198;-46
2022/04/07 09:34:30;;;;;;;3.67;2.53;;;15.50;89.00;;;;;;5067273;28;20292;-45
2022/04/07 09:37:05;;;;;;;2.17;2.03;;;15.70;88.00;;;;;;5068904;28;20203;-44
2022/04/07 09:39:34;;;;;;;2.30;1.97;;;15.80;87.30;;;;;;5068376;28;20197;-49
2022/04/07 09:42:22;;;;;;;2.33;2.03;;;15.90;87.20;;;;;;5065207;28;20196;-45
2022/04/07 09:44:54;;;;;;;6.53;2.20;;;16.10;86.00;;;;;;5059564;28;20197;-45
2022/04/07 09:47:22;;;;;;;2.27;2.07;;;16.10;84.80;;;;;;5064241;28;20223;-45
2022/04/07 09:49:50;;;;;;;5.43;1.90;;;16.10;83.70;;;;;;5066778;28;20196;-42
2022/04/07 09:52:21;;;;;;;2.07;1.73;;;16.10;82.40;;;;;;5067171;28;20255;-45
2022/04/07 09:54:52;;;;;;;2.73;2.07;;;16.20;82.40;;;;;;5069192;28;20613;-44
2022/04/07 09:57:20;;;;;;;3.57;2.37;;;16.20;81.80;;;;;;5069426;28;20600;-42
2022/04/07 09:59:48;;;;;;;2.07;1.80;;;16.20;81.50;;;;;;5068964;28;20216;-43
2022/04/07 10:02:18;;;;;;;4.57;1.83;;;16.20;81.10;;;;;;5068412;28;20212;-45
2022/04/07 10:04:46;;;;;;;2.60;2.10;;;16.20;81.00;;;;;;5068341;28;20189;-45
2022/04/07 10:07:15;;;;;;;2.57;1.90;;;16.20;80.20;;;;;;5066643;28;20197;-42
2022/04/07 10:09:42;;;;;;;4.37;2.20;;;16.20;80.20;;;;;;5066049;28;20200;-47
2022/04/07 10:12:11;;;;;;;5.13;2.30;;;16.20;80.00;;;;;;5053721;28;20192;-49
2022/04/07 10:14:39;;;;;;;2.70;2.00;;;16.10;79.60;;;;;;5063219;28;20247;-43
2022/04/07 10:17:13;;;;;;;2.10;1.87;;;16.10;79.50;;;;;;5067858;28;20746;-50
2022/04/07 10:19:48;;;;;;;6.00;2.07;;;16.20;80.50;;;;;;5062015;28;20221;-44
2022/04/07 10:22:34;;;;;;;1.67;1.57;;;16.10;79.30;;;;;;5068808;28;20197;-44
2022/04/07 10:25:04;;;;;;;1.90;1.60;;;16.10;79.60;;;;;;5069411;28;20204;-42
2022/04/07 10:27:35;;;;;;;3.00;1.73;;;16.10;78.90;;;;;;5063302;28;20676;-46
2022/04/07 10:30:05;;;;;;;3.20;1.87;;;16.10;78.00;;;;;;5063402;28;20251;-45
2022/04/07 10:32:40;;;;;;;2.47;1.83;;;16.20;77.60;;;;;;5067581;28;20280;-49
2022/04/07 10:35:10;;;;;;;1.90;1.77;;;16.20;77.20;;;;;;5070264;28;20243;-50
2022/04/07 10:37:45;;;;;;;2.03;1.90;;;16.10;76.80;;;;;;5069481;28;20212;-47
2022/04/07 10:40:50;;;;;;;2.20;1.60;;;16.00;76.70;;;;;;5065354;28;20587;-42
2022/04/07 10:43:22;;;;;;;2.80;2.00;;;16.00;76.30;;;;;;5060549;28;20274;-48
2022/04/07 10:45:51;;;;;;;7.03;1.93;;;15.90;76.60;;;;;;5071848;28;20196;-48
2022/04/07 10:48:24;;;;;;;2.43;1.80;;;15.80;77.10;;;;;;5071793;28;20253;-45
2022/04/07 10:50:55;;;;;;;2.87;1.83;;;15.80;77.60;;;;;;5072407;28;20205;-45
2022/04/07 10:53:27;;;;;;;3.13;1.83;;;15.70;77.90;;;;;;5073075;28;20287;-45
2022/04/07 10:56:00;;;;;;;4.03;1.70;;;15.60;77.70;;;;;;5072250;28;20311;-48
2022/04/07 10:58:55;;;;;;;1.90;1.70;;;15.70;78.20;;;;;;5069024;28;20553;-46
2022/04/07 11:01:55;;;;;;;2.30;2.00;;;15.70;77.90;;;;;;5060865;28;20242;-50
2022/04/07 11:04:50;;;;;;;2.70;2.13;;;15.70;77.80;;;;;;5063822;28;20208;-49
2022/04/07 11:07:19;;;;;;;2.57;1.83;;;15.80;77.40;;;;;;5063773;28;20191;-47
2022/04/07 11:09:49;;;;;;;3.20;1.53;;;15.90;77.30;;;;;;5069006;28;20536;-45
2022/04/07 11:12:24;;;;;;;1.93;1.77;;;15.90;77.10;;;;;;5059556;28;20208;-48
2022/04/07 11:14:52;;;;;;;2.50;1.70;;;16.10;76.80;;;;;;5070945;28;20323;-47
2022/04/07 11:17:29;;;;;;;2.13;1.93;;;16.30;76.90;;;;;;5071508;28;20212;-44
2022/04/07 11:20:13;;;;;;;3.23;1.90;;;16.50;76.60;;;;;;5064479;28;20691;-47
2022/04/07 11:22:50;;;;;;;3.53;2.03;;;16.70;75.30;;;;;;5065206;28;20192;-51
2022/04/07 11:25:22;;;;;;;3.20;2.00;;;16.90;74.90;;;;;;5066178;28;20217;-44
2022/04/07 11:28:04;;;;;;;3.23;1.97;;;17.00;74.90;;;;;;5064808;28;20204;-46
2022/04/07 11:30:38;;;;;;;1.87;1.77;;;17.10;74.50;;;;;;5068203;28;20190;-43
2022/04/07 11:33:39;;;;;;;2.20;1.97;;;17.20;74.60;;;;;;5061982;28;20196;-45
2022/04/07 11:36:37;;;;;;;4.33;2.13;;;17.30;74.00;;;;;;5062162;28;20205;-44
2022/04/07 11:39:13;;;;;;;2.90;1.73;;;17.30;74.00;;;;;;5060876;28;20789;-46
2022/04/07 11:41:43;;;;;;;1.83;1.73;;;17.30;73.20;;;;;;5065337;28;20197;-48
2022/04/07 11:44:12;;;;;;;1.60;1.50;;;17.30;72.70;;;;;;5067040;28;20680;-48
2022/04/07 11:46:40;;;;;;;4.30;2.10;;;17.30;72.60;;;;;;5061007;28;20197;-48
2022/04/07 11:49:07;;;;;;;2.97;1.87;;;17.30;72.20;;;;;;5070499;28;20702;-48
2022/04/07 11:51:37;;;;;;;1.93;1.83;;;17.30;72.00;;;;;;5070582;28;20348;-47
2022/04/07 11:54:06;;;;;;;3.37;1.90;;;17.30;71.70;;;;;;5066870;28;20190;-46
2022/04/07 11:56:36;;;;;;;3.13;1.90;;;17.30;71.20;;;;;;5064192;28;20568;-48
2022/04/07 11:59:05;;;;;;;1.97;1.70;;;17.20;70.90;;;;;;5071359;28;20199;-45
2022/04/07 12:01:32;;;;;;;2.30;1.83;;;17.20;71.00;;;;;;5070807;28;20280;-49
2022/04/07 12:04:02;;;;;;;2.63;2.07;;;17.10;70.90;;;;;;5067105;28;20204;-45
2022/04/07 12:06:31;;;;;;;2.10;1.90;;;17.00;70.80;;;;;;5068445;28;20209;-48
2022/04/07 12:08:58;;;;;;;5.47;1.90;;;17.10;71.00;;;;;;5067812;28;20193;-48
2022/04/07 12:11:30;;;;;;;5.33;1.93;;;17.20;70.80;;;;;;5069921;28;20203;-50
2022/04/07 12:13:58;;;;;;;2.27;1.57;;;17.30;70.60;;;;;;5067452;28;20198;-44
2022/04/07 12:16:26;;;;;;;3.13;1.63;;;17.30;70.10;;;;;;5070444;28;20720;-48
2022/04/07 12:18:55;;;;;;;3.10;1.60;;;17.40;69.70;;;;;;5070144;28;20201;-47
2022/04/07 12:21:23;;;;;;;3.17;1.77;;;17.30;69.80;;;;;;5071223;28;20204;-47
2022/04/07 12:24:05;;;;;;;1.73;1.60;;;17.20;70.00;;;;;;5069593;28;20605;-50
2022/04/07 12:26:40;;;;;;;1.83;1.20;;;17.00;70.30;;;;;;5059197;28;20641;-49
2022/04/07 12:29:08;;;;;;;1.70;1.60;;;16.90;70.10;;;;;;5063437;28;20195;-45
2022/04/07 12:31:35;;;;;;;8.43;2.03;;;16.90;70.10;;;;;;5059579;28;20664;-43
2022/04/07 12:34:11;;;;;;;2.80;1.60;;;16.70;70.30;;;;;;5058018;28;20248;-47
2022/04/07 12:36:40;;;;;;;4.13;1.40;;;16.70;70.40;;;;;;5057738;28;20383;-47
2022/04/07 12:39:09;;;;;;;6.10;1.70;;;16.70;70.90;;;;;;5068897;28;20201;-46
2022/04/07 12:41:40;;;;;;;2.53;2.07;;;16.90;71.60;;;;;;5067715;28;20558;-43
2022/04/07 12:44:08;;;;;;;1.63;1.43;;;17.00;72.10;;;;;;5066514;28;20189;-44
2022/04/07 12:46:49;;;;;;;3.63;1.60;;;17.10;74.00;;;;;;5061628;28;20277;-46
2022/04/07 12:49:23;;;;;;;1.53;1.10;;;17.10;73.80;;;;;;5066870;28;20197;-50
2022/04/07 12:52:02;;;;;;;1.10;1.00;;;17.10;73.70;;;;;;5070323;28;20190;-53
2022/04/07 12:54:29;;;;;;;1.27;1.17;;;17.10;73.90;;;;;;5070288;28;20627;-48
2022/04/07 12:57:13;;;;;;;1.20;1.10;;;17.10;74.30;;;;;;5069655;28;20197;-50